Time;durP1;ratioP1;P1;durP2;ratioP2;P2;SDS_P1;SDS_P2;PMS_P1;PMS_P2;Temp;Humidity;BMP_temperature;BMP_pressure;BME280_temperature;BME280_humidity;BME280_pressure;Samples;Min_cycle;Max_cycle;Signal;HPM_P1;HPM_P2
2020/12/09 00:01:54;;;;;;;12.23;10.77;;;8.20;73.30;;;;;;5092876;28;20028;-64
2020/12/09 00:04:20;;;;;;;13.40;12.00;;;8.10;73.10;;;;;;5084259;28;20024;-66
2020/12/09 00:06:46;;;;;;;13.70;11.27;;;8.20;73.00;;;;;;5093970;28;20028;-65
2020/12/09 00:09:18;;;;;;;12.93;10.63;;;8.20;72.90;;;;;;5074520;28;20051;-65
2020/12/09 00:11:43;;;;;;;12.85;10.90;;;8.20;72.90;;;;;;5074859;28;20044;-65
2020/12/09 00:14:09;;;;;;;15.25;11.52;;;8.20;72.60;;;;;;5091572;28;20464;-64
2020/12/09 00:16:36;;;;;;;13.55;11.48;;;8.00;73.00;;;;;;5090657;28;20174;-65
2020/12/09 00:19:03;;;;;;;15.93;11.65;;;8.00;73.50;;;;;;5093262;28;20044;-64
2020/12/09 00:21:30;;;;;;;14.68;11.27;;;8.00;73.50;;;;;;5091786;28;20054;-66
2020/12/09 00:23:56;;;;;;;12.85;10.68;;;8.10;72.80;;;;;;5059529;28;20090;-66
2020/12/09 00:26:23;;;;;;;14.52;11.90;;;8.00;73.00;;;;;;5078025;28;20456;-65
2020/12/09 00:28:50;;;;;;;12.45;10.98;;;8.00;73.00;;;;;;5083557;28;20036;-66
2020/12/09 00:31:17;;;;;;;14.15;11.57;;;8.00;73.30;;;;;;5093616;28;20020;-65
2020/12/09 00:33:44;;;;;;;13.52;12.05;;;8.00;73.40;;;;;;5075925;28;20181;-64
2020/12/09 00:36:13;;;;;;;13.45;11.98;;;8.00;73.20;;;;;;5072217;28;20401;-64
2020/12/09 00:38:39;;;;;;;15.07;12.13;;;8.10;73.30;;;;;;5062340;28;20091;-65
2020/12/09 00:41:04;;;;;;;14.68;12.15;;;8.00;73.00;;;;;;5060313;28;20056;-64
2020/12/09 00:43:30;;;;;;;14.82;12.65;;;8.00;73.10;;;;;;5081498;28;20023;-65
2020/12/09 00:45:56;;;;;;;14.73;12.43;;;8.00;73.30;;;;;;5063351;28;20020;-64
2020/12/09 00:48:22;;;;;;;13.48;11.93;;;8.00;73.10;;;;;;5070805;28;20031;-64
2020/12/09 00:50:48;;;;;;;17.10;13.40;;;8.00;73.00;;;;;;5092889;28;20035;-65
2020/12/09 00:53:14;;;;;;;16.42;13.20;;;8.00;73.10;;;;;;5093410;28;20082;-64
2020/12/09 00:55:40;;;;;;;15.68;12.55;;;8.00;73.60;;;;;;5074984;28;20449;-65
2020/12/09 00:58:05;;;;;;;18.23;13.68;;;8.00;73.10;;;;;;5089501;28;20032;-65
2020/12/09 01:00:31;;;;;;;16.13;12.77;;;8.00;73.30;;;;;;5064643;28;20714;-65
2020/12/09 01:02:57;;;;;;;18.65;14.27;;;8.00;73.10;;;;;;5056520;28;20039;-65
2020/12/09 01:05:23;;;;;;;17.42;12.85;;;8.10;72.60;;;;;;5081707;28;20032;-69
2020/12/09 01:07:48;;;;;;;17.42;13.48;;;8.10;72.40;;;;;;5070468;28;20024;-66
2020/12/09 01:10:14;;;;;;;17.30;13.38;;;8.10;72.40;;;;;;5087851;28;20028;-66
2020/12/09 01:12:41;;;;;;;17.70;13.52;;;8.20;72.10;;;;;;5071366;28;20483;-67
2020/12/09 01:15:25;;;;;;;18.10;13.45;;;8.20;72.00;;;;;;5067007;28;20033;-64
2020/12/09 01:17:51;;;;;;;17.73;14.13;;;8.20;71.90;;;;;;5060199;28;20028;-65
2020/12/09 01:20:17;;;;;;;15.65;12.43;;;8.20;71.80;;;;;;5109114;28;20582;-65
2020/12/09 01:22:44;;;;;;;19.98;12.77;;;8.20;72.00;;;;;;5098450;28;20044;-65
2020/12/09 01:25:10;;;;;;;16.33;12.98;;;8.10;72.00;;;;;;5093267;28;20055;-65
2020/12/09 01:27:35;;;;;;;15.57;12.30;;;8.10;72.30;;;;;;5069250;28;20109;-64
2020/12/09 01:30:01;;;;;;;17.88;13.23;;;8.20;72.10;;;;;;5089015;28;20040;-64
2020/12/09 01:32:27;;;;;;;19.48;13.32;;;8.10;71.90;;;;;;5075052;28;20051;-65
2020/12/09 01:34:52;;;;;;;16.40;11.98;;;8.00;72.40;;;;;;5091759;28;20851;-64
2020/12/09 01:37:18;;;;;;;22.17;13.68;;;7.80;73.30;;;;;;5092206;28;20035;-64
2020/12/09 01:39:44;;;;;;;18.45;13.50;;;7.80;73.40;;;;;;5052325;28;20072;-64
2020/12/09 01:42:10;;;;;;;19.15;13.57;;;7.80;73.70;;;;;;5072238;28;20534;-65
2020/12/09 01:44:37;;;;;;;16.70;13.43;;;7.90;73.60;;;;;;5075191;28;20095;-64
2020/12/09 01:47:06;;;;;;;21.52;15.55;;;7.90;73.00;;;;;;5091863;28;20024;-64
2020/12/09 01:49:33;;;;;;;18.50;13.77;;;8.00;73.00;;;;;;5092466;28;20041;-64
2020/12/09 01:52:04;;;;;;;19.25;13.68;;;8.00;72.60;;;;;;5089756;28;20108;-65
2020/12/09 01:54:32;;;;;;;16.88;13.25;;;8.00;72.20;;;;;;5085104;28;20052;-64
2020/12/09 01:57:10;;;;;;;19.42;14.25;;;8.00;72.30;;;;;;5038070;28;20033;-65
2020/12/09 01:59:37;;;;;;;17.23;12.57;;;8.10;72.70;;;;;;5072961;28;20046;-64
2020/12/09 02:02:03;;;;;;;19.10;13.40;;;8.00;71.80;;;;;;5091999;28;20028;-64
2020/12/09 02:04:30;;;;;;;18.17;13.65;;;7.80;72.70;;;;;;5092257;28;20031;-65
2020/12/09 02:06:56;;;;;;;17.05;12.98;;;7.70;73.20;;;;;;5091085;28;20036;-65
2020/12/09 02:09:23;;;;;;;19.30;14.07;;;7.70;73.20;;;;;;5091618;28;20072;-65
2020/12/09 02:11:50;;;;;;;18.23;12.98;;;7.80;73.00;;;;;;5072049;28;20020;-64
2020/12/09 02:14:17;;;;;;;16.65;12.95;;;7.90;72.80;;;;;;5073318;28;20077;-66
2020/12/09 02:16:46;;;;;;;17.60;13.13;;;8.00;72.60;;;;;;5072703;28;20032;-67
2020/12/09 02:19:13;;;;;;;17.08;12.15;;;8.00;72.10;;;;;;5074397;28;20074;-65
2020/12/09 02:21:38;;;;;;;16.52;11.98;;;8.00;71.40;;;;;;5089833;28;20046;-64
2020/12/09 02:24:04;;;;;;;18.85;12.93;;;7.90;71.80;;;;;;5090438;28;20036;-64
2020/12/09 02:26:30;;;;;;;16.10;12.00;;;7.90;71.90;;;;;;5091225;28;20492;-64
2020/12/09 02:28:56;;;;;;;14.60;11.68;;;8.00;71.60;;;;;;5072110;28;20032;-64
2020/12/09 02:31:22;;;;;;;15.70;11.88;;;7.90;71.70;;;;;;5091477;28;20028;-64
2020/12/09 02:33:48;;;;;;;15.13;11.70;;;7.80;71.50;;;;;;5086272;28;20036;-63
2020/12/09 02:36:14;;;;;;;14.98;12.07;;;7.70;71.90;;;;;;5091325;28;20020;-65
2020/12/09 02:38:40;;;;;;;15.35;11.95;;;7.60;72.00;;;;;;5090603;28;20383;-64
2020/12/09 02:41:05;;;;;;;16.27;11.50;;;7.60;72.50;;;;;;5090447;28;20042;-64
2020/12/09 02:43:31;;;;;;;15.60;12.10;;;7.60;72.50;;;;;;5091190;28;20028;-64
2020/12/09 02:45:57;;;;;;;13.73;10.88;;;7.70;72.30;;;;;;5071234;28;20054;-65
2020/12/09 02:48:23;;;;;;;13.45;10.77;;;7.70;71.90;;;;;;5089557;28;20372;-65
2020/12/09 02:50:48;;;;;;;12.93;10.55;;;7.70;71.60;;;;;;5085819;28;20036;-64
2020/12/09 02:53:14;;;;;;;14.45;11.45;;;7.60;71.60;;;;;;5090453;28;20024;-64
2020/12/09 02:55:40;;;;;;;13.63;10.50;;;7.70;71.70;;;;;;5090513;28;20111;-63
2020/12/09 02:58:05;;;;;;;14.20;10.23;;;7.60;71.50;;;;;;5072424;28;20361;-64
2020/12/09 03:00:31;;;;;;;14.82;10.95;;;7.60;71.90;;;;;;5072448;28;20445;-65
2020/12/09 03:02:57;;;;;;;13.57;10.40;;;7.60;71.80;;;;;;5089675;28;20530;-64
2020/12/09 03:05:23;;;;;;;15.18;11.07;;;7.50;71.90;;;;;;5091023;28;20070;-65
2020/12/09 03:07:49;;;;;;;13.05;10.55;;;7.50;72.20;;;;;;5089727;28;20525;-65
2020/12/09 03:10:14;;;;;;;12.68;10.18;;;7.60;71.70;;;;;;5071805;28;20453;-64
2020/12/09 03:12:40;;;;;;;12.82;10.48;;;7.70;71.10;;;;;;5079202;28;20051;-65
2020/12/09 03:15:06;;;;;;;13.63;10.68;;;7.60;71.30;;;;;;5091218;28;20021;-66
2020/12/09 03:17:31;;;;;;;13.50;10.55;;;7.60;71.40;;;;;;5090586;28;20028;-65
2020/12/09 03:19:57;;;;;;;13.27;10.45;;;7.60;71.10;;;;;;5090516;28;20029;-64
2020/12/09 03:22:22;;;;;;;17.50;10.77;;;7.60;71.50;;;;;;5091271;28;20033;-64
2020/12/09 03:24:48;;;;;;;15.35;10.93;;;7.60;71.30;;;;;;5090339;28;20031;-64
2020/12/09 03:27:14;;;;;;;13.32;9.93;;;7.60;71.30;;;;;;5091338;28;20024;-65
2020/12/09 03:29:40;;;;;;;13.98;11.05;;;7.50;71.40;;;;;;5090677;28;20465;-64
2020/12/09 03:32:06;;;;;;;16.35;11.73;;;7.30;72.30;;;;;;5089334;28;20043;-65
2020/12/09 03:34:32;;;;;;;14.35;11.25;;;7.40;72.30;;;;;;5053133;28;20028;-65
2020/12/09 03:36:57;;;;;;;14.23;11.48;;;7.30;72.40;;;;;;5070304;28;20047;-64
2020/12/09 03:39:23;;;;;;;13.85;11.13;;;7.30;72.50;;;;;;5053082;28;20084;-65
2020/12/09 03:41:48;;;;;;;13.13;10.82;;;7.40;72.00;;;;;;5070522;28;20076;-65
2020/12/09 03:44:14;;;;;;;16.02;12.25;;;7.30;72.10;;;;;;5078953;28;20020;-65
2020/12/09 03:46:40;;;;;;;15.32;10.98;;;7.40;72.20;;;;;;5072751;28;20024;-65
2020/12/09 03:49:05;;;;;;;14.50;11.20;;;7.40;71.90;;;;;;5072919;28;20043;-64
2020/12/09 03:51:31;;;;;;;14.50;10.90;;;7.40;71.60;;;;;;5091295;28;20047;-64
2020/12/09 03:53:57;;;;;;;14.95;11.02;;;7.50;71.50;;;;;;5063462;28;20055;-65
2020/12/09 03:56:22;;;;;;;13.38;10.60;;;7.50;71.30;;;;;;5073087;28;20027;-64
2020/12/09 03:58:48;;;;;;;15.60;11.70;;;7.40;71.40;;;;;;5091378;28;20058;-64
2020/12/09 04:01:14;;;;;;;16.40;11.38;;;7.40;71.90;;;;;;5094856;28;20024;-65
2020/12/09 04:03:39;;;;;;;14.65;12.27;;;7.30;71.90;;;;;;5093459;28;20448;-64
2020/12/09 04:06:05;;;;;;;13.77;11.70;;;7.30;72.00;;;;;;5093985;28;20081;-65
2020/12/09 04:08:30;;;;;;;14.02;11.75;;;7.50;71.80;;;;;;5094347;28;20145;-65
2020/12/09 04:10:56;;;;;;;14.48;11.05;;;7.50;71.50;;;;;;5075645;28;20024;-65
2020/12/09 04:13:22;;;;;;;14.25;11.65;;;7.40;71.70;;;;;;5093660;28;20070;-64
2020/12/09 04:15:47;;;;;;;14.18;11.88;;;7.20;72.30;;;;;;5093495;28;20035;-64
2020/12/09 04:18:13;;;;;;;13.75;11.88;;;7.10;72.70;;;;;;5093258;28;20035;-65
2020/12/09 04:20:39;;;;;;;14.75;12.02;;;7.10;73.20;;;;;;5094054;28;20039;-65
2020/12/09 04:23:05;;;;;;;15.73;11.60;;;7.00;73.30;;;;;;5093481;28;20061;-64
2020/12/09 04:25:30;;;;;;;15.00;11.75;;;7.00;73.30;;;;;;5094540;28;20380;-64
2020/12/09 04:27:56;;;;;;;15.07;11.57;;;7.10;73.00;;;;;;5093037;28;20465;-64
2020/12/09 04:30:21;;;;;;;13.98;10.88;;;7.20;72.60;;;;;;5093810;28;20020;-64
2020/12/09 04:32:47;;;;;;;15.43;12.20;;;7.30;71.70;;;;;;5091873;28;20024;-64
2020/12/09 04:35:13;;;;;;;13.88;10.27;;;7.30;71.80;;;;;;5093051;28;20036;-64
2020/12/09 04:37:40;;;;;;;13.43;11.13;;;7.40;71.30;;;;;;5072073;28;20031;-64
2020/12/09 04:40:06;;;;;;;13.27;10.50;;;7.30;71.60;;;;;;5073192;28;20091;-64
2020/12/09 04:42:32;;;;;;;14.20;11.38;;;7.30;71.50;;;;;;5077702;28;20020;-64
2020/12/09 04:44:58;;;;;;;14.75;11.95;;;7.30;71.30;;;;;;5093265;28;20031;-65
2020/12/09 04:47:26;;;;;;;15.18;11.50;;;7.40;71.00;;;;;;5085723;28;20047;-64
2020/12/09 04:50:04;;;;;;;13.85;10.85;;;7.50;70.80;;;;;;5087890;28;20055;-65
2020/12/09 04:52:43;;;;;;;13.93;11.00;;;7.60;70.20;;;;;;5058930;28;20116;-65
2020/12/09 04:55:18;;;;;;;14.55;11.40;;;7.60;70.10;;;;;;5092903;28;20065;-64
2020/12/09 04:57:53;;;;;;;15.23;11.45;;;7.60;69.70;;;;;;5092686;28;20028;-63
2020/12/09 05:00:20;;;;;;;14.60;10.95;;;7.60;69.70;;;;;;5075234;28;20047;-63
2020/12/09 05:02:53;;;;;;;14.27;10.55;;;7.60;69.60;;;;;;5091484;28;20110;-64
2020/12/09 05:05:23;;;;;;;13.43;10.25;;;7.60;69.70;;;;;;5092366;28;20039;-64
2020/12/09 05:07:53;;;;;;;14.48;11.07;;;7.50;69.70;;;;;;5074364;28;20475;-65
2020/12/09 05:10:22;;;;;;;15.27;11.15;;;7.50;69.90;;;;;;5073178;28;20189;-65
2020/12/09 05:12:50;;;;;;;14.07;10.73;;;7.50;69.80;;;;;;5073197;28;20027;-64
2020/12/09 05:15:20;;;;;;;12.10;10.23;;;7.50;69.90;;;;;;5073973;28;20028;-66
2020/12/09 05:18:03;;;;;;;12.23;10.07;;;7.40;70.00;;;;;;5070027;28;20123;-64
2020/12/09 05:20:34;;;;;;;15.60;10.88;;;7.40;70.20;;;;;;5093192;28;20028;-63
2020/12/09 05:23:00;;;;;;;13.60;10.48;;;7.30;70.80;;;;;;5091077;28;20039;-65
2020/12/09 05:25:27;;;;;;;15.95;11.90;;;7.20;71.10;;;;;;5091760;28;20024;-65
2020/12/09 05:27:54;;;;;;;16.10;12.00;;;7.30;71.30;;;;;;5092249;28;20024;-65
2020/12/09 05:30:39;;;;;;;13.13;10.70;;;7.40;70.70;;;;;;5073824;28;20062;-64
2020/12/09 05:33:06;;;;;;;15.15;11.55;;;7.20;70.80;;;;;;5059745;28;20024;-65
2020/12/09 05:35:32;;;;;;;17.23;11.73;;;7.10;71.70;;;;;;5082323;28;20028;-63
2020/12/09 05:38:12;;;;;;;16.05;11.60;;;7.10;71.70;;;;;;5073380;28;20028;-64
2020/12/09 05:40:40;;;;;;;14.40;11.38;;;7.20;71.30;;;;;;5088589;28;20071;-65
2020/12/09 05:43:05;;;;;;;15.50;11.32;;;7.20;71.30;;;;;;5092414;28;20117;-64
2020/12/09 05:45:31;;;;;;;13.40;11.50;;;7.20;71.70;;;;;;5083387;28;20109;-65
2020/12/09 05:48:13;;;;;;;14.00;11.02;;;7.30;70.70;;;;;;5068707;28;20474;-65
2020/12/09 05:50:58;;;;;;;13.43;10.45;;;7.30;70.60;;;;;;5073300;28;20137;-64
2020/12/09 05:53:29;;;;;;;14.88;10.90;;;7.40;70.40;;;;;;5092231;28;20032;-65
2020/12/09 05:56:16;;;;;;;14.70;11.20;;;7.40;70.30;;;;;;5074334;28;20433;-64
2020/12/09 05:58:46;;;;;;;13.02;10.88;;;7.40;70.20;;;;;;5092509;28;20117;-64
2020/12/09 06:01:21;;;;;;;13.50;11.38;;;7.30;70.20;;;;;;5074766;28;20051;-64
2020/12/09 06:03:57;;;;;;;14.35;11.10;;;7.20;70.60;;;;;;5079027;28;20038;-63
2020/12/09 06:06:30;;;;;;;12.95;10.15;;;7.20;70.60;;;;;;5076166;28;20491;-63
2020/12/09 06:08:58;;;;;;;14.50;10.83;;;7.10;71.00;;;;;;5093606;28;20107;-66
2020/12/09 06:11:32;;;;;;;14.57;11.40;;;7.10;71.20;;;;;;5074832;28;20368;-63
2020/12/09 06:13:58;;;;;;;13.93;11.05;;;7.10;71.50;;;;;;5092596;28;20020;-63
2020/12/09 06:16:24;;;;;;;14.40;11.30;;;7.10;71.30;;;;;;5093179;28;20049;-65
2020/12/09 06:18:52;;;;;;;14.65;11.52;;;7.10;71.30;;;;;;5093358;28;20078;-65
2020/12/09 06:21:18;;;;;;;13.90;10.50;;;7.10;71.30;;;;;;5072756;28;20089;-66
2020/12/09 06:23:44;;;;;;;13.77;10.68;;;7.30;71.10;;;;;;5093528;28;20026;-65
2020/12/09 06:26:10;;;;;;;13.50;10.32;;;7.40;70.60;;;;;;5068675;28;20028;-65
2020/12/09 06:28:39;;;;;;;14.25;10.75;;;7.40;70.00;;;;;;5093891;28;20209;-65
2020/12/09 06:31:23;;;;;;;13.68;10.07;;;7.50;70.00;;;;;;5074645;28;20028;-64
2020/12/09 06:33:54;;;;;;;12.75;9.85;;;7.50;69.50;;;;;;5073742;28;20056;-66
2020/12/09 06:36:23;;;;;;;14.48;10.10;;;7.50;69.80;;;;;;5088701;28;20111;-66
2020/12/09 06:39:05;;;;;;;15.75;9.60;;;7.50;69.30;;;;;;5090488;28;20128;-66
2020/12/09 06:42:16;;;;;;;12.48;9.05;;;7.40;69.20;;;;;;5073631;28;20062;-68
2020/12/09 06:44:49;;;;;;;13.27;9.38;;;7.30;70.00;;;;;;5093192;28;20046;-67
2020/12/09 06:47:14;;;;;;;13.38;9.90;;;7.40;69.80;;;;;;5072769;28;20054;-68
2020/12/09 06:49:42;;;;;;;13.10;10.23;;;7.40;69.70;;;;;;5091584;28;20036;-68
2020/12/09 06:52:10;;;;;;;15.95;9.88;;;7.40;69.70;;;;;;5091134;28;20024;-68
2020/12/09 06:54:41;;;;;;;16.83;11.20;;;7.50;69.50;;;;;;5092351;28;20021;-69
2020/12/09 06:57:13;;;;;;;15.85;10.35;;;7.60;69.30;;;;;;5073080;28;20423;-65
2020/12/09 06:59:39;;;;;;;14.27;11.32;;;7.80;69.30;;;;;;5071443;22;20111;-65
2020/12/09 07:02:06;;;;;;;19.75;9.38;;;7.90;68.90;;;;;;5010021;28;20449;-64
2020/12/09 07:04:54;;;;;;;13.23;10.07;;;7.90;68.30;;;;;;5012685;28;20022;-66
2020/12/09 07:07:34;;;;;;;13.05;9.57;;;7.90;68.00;;;;;;5015431;28;20057;-64
2020/12/09 07:10:02;;;;;;;11.93;9.25;;;7.80;68.40;;;;;;5021039;28;20040;-64
2020/12/09 07:12:28;;;;;;;16.08;9.48;;;7.50;69.40;;;;;;5022638;28;20026;-65
2020/12/09 07:14:56;;;;;;;13.80;9.73;;;7.30;70.00;;;;;;5025933;28;20029;-65
2020/12/09 07:17:24;;;;;;;15.30;8.48;;;7.20;70.90;;;;;;5019961;28;20041;-65
2020/12/09 07:19:50;;;;;;;13.18;8.65;;;7.30;70.50;;;;;;5024930;28;20030;-65
2020/12/09 07:22:16;;;;;;;16.45;9.30;;;7.20;70.60;;;;;;5030904;28;20370;-64
2020/12/09 07:24:43;;;;;;;12.25;8.82;;;7.20;70.90;;;;;;5017524;28;20029;-64
2020/12/09 07:27:10;;;;;;;13.13;8.85;;;7.20;71.00;;;;;;5029524;28;20082;-64
2020/12/09 07:29:40;;;;;;;11.32;8.77;;;7.20;70.80;;;;;;5025845;28;20033;-65
2020/12/09 07:32:07;;;;;;;13.27;9.65;;;7.30;70.80;;;;;;5019282;28;20119;-64
2020/12/09 07:34:33;;;;;;;11.90;9.10;;;7.40;70.60;;;;;;5024472;28;20062;-66
2020/12/09 07:36:59;;;;;;;12.82;9.13;;;7.50;69.50;;;;;;5014707;28;20037;-67
2020/12/09 07:39:26;;;;;;;17.10;10.40;;;7.40;69.80;;;;;;5022852;28;20042;-65
2020/12/09 07:41:58;;;;;;;63.33;24.75;;;7.50;69.90;;;;;;5029338;28;20056;-66
2020/12/09 07:44:24;;;;;;;51.50;22.48;;;7.70;69.30;;;;;;5020027;28;20068;-66
2020/12/09 07:50:05;;;;;;;29.08;14.60;;;7.60;69.30;;;;;;5023965;28;20057;-64
2020/12/09 07:52:33;;;;;;;16.95;9.75;;;7.60;69.30;;;;;;5022172;28;20112;-65
2020/12/09 07:55:04;;;;;;;23.73;13.40;;;7.50;69.10;;;;;;5021543;28;20022;-65
2020/12/09 07:57:32;;;;;;;24.35;13.88;;;7.40;69.50;;;;;;5004708;28;20033;-64
2020/12/09 07:59:59;;;;;;;19.88;12.05;;;7.40;69.70;;;;;;5026653;28;20057;-64
2020/12/09 08:02:29;;;;;;;18.77;10.23;;;7.40;69.50;;;;;;5028784;28;20028;-64
2020/12/09 08:05:12;;;;;;;16.10;9.90;;;7.40;69.70;;;;;;5031433;28;20540;-65
2020/12/09 08:07:49;;;;;;;12.43;8.57;;;7.30;69.60;;;;;;5009113;28;20526;-66
2020/12/09 08:10:19;;;;;;;14.65;9.20;;;7.30;69.80;;;;;;5031788;28;20029;-66
2020/12/09 08:12:45;;;;;;;13.38;8.23;;;7.20;70.30;;;;;;5017104;28;20030;-65
2020/12/09 08:15:11;;;;;;;12.25;8.68;;;7.20;69.80;;;;;;5021837;28;20041;-65
2020/12/09 08:17:37;;;;;;;14.30;9.10;;;7.20;70.00;;;;;;5003671;28;20022;-65
2020/12/09 08:20:21;;;;;;;14.45;9.80;;;7.30;70.00;;;;;;5003572;28;20029;-64
2020/12/09 08:22:51;;;;;;;15.93;9.38;;;7.50;69.50;;;;;;5023467;28;20036;-67
2020/12/09 08:25:20;;;;;;;19.10;9.52;;;7.50;68.90;;;;;;5003861;28;20049;-66
2020/12/09 08:27:46;;;;;;;14.63;9.27;;;7.60;69.00;;;;;;5008193;28;20029;-64
2020/12/09 08:30:33;;;;;;;15.05;9.18;;;7.70;68.40;;;;;;5022147;28;20116;-67
2020/12/09 08:33:08;;;;;;;12.63;8.75;;;7.50;68.60;;;;;;5019053;28;20148;-67
2020/12/09 08:35:48;;;;;;;11.52;8.50;;;7.60;68.50;;;;;;5014422;28;20383;-66
2020/12/09 08:38:32;;;;;;;11.88;9.00;;;7.60;68.40;;;;;;5015652;28;20037;-67
2020/12/09 08:41:00;;;;;;;12.20;7.80;;;7.60;68.40;;;;;;5020112;28;20552;-61
2020/12/09 08:43:29;;;;;;;13.88;8.50;;;7.70;67.80;;;;;;5029799;28;20068;-66
2020/12/09 08:45:54;;;;;;;15.05;9.40;;;7.70;68.10;;;;;;5010132;28;20033;-67
2020/12/09 08:48:21;;;;;;;13.50;8.57;;;7.80;67.60;;;;;;5025865;28;20029;-66
2020/12/09 08:50:48;;;;;;;18.92;9.10;;;7.70;67.80;;;;;;5032007;28;20033;-62
2020/12/09 08:53:14;;;;;;;15.65;9.40;;;7.60;68.20;;;;;;5027389;28;20537;-68
2020/12/09 08:55:42;;;;;;;11.60;8.32;;;7.60;68.20;;;;;;5023258;28;20061;-61
2020/12/09 08:58:11;;;;;;;12.48;8.52;;;7.70;67.90;;;;;;5010433;28;20088;-64
2020/12/09 09:00:39;;;;;;;12.48;8.48;;;7.70;67.80;;;;;;5032426;28;20116;-61
2020/12/09 09:03:07;;;;;;;20.63;10.52;;;7.90;67.60;;;;;;5025437;28;20022;-67
2020/12/09 09:05:32;;;;;;;19.33;11.73;;;7.90;67.00;;;;;;5026960;28;20026;-64
2020/12/09 09:07:58;;;;;;;15.38;11.02;;;7.80;67.30;;;;;;4996778;28;20034;-63
2020/12/09 09:10:24;;;;;;;19.52;10.82;;;7.60;67.90;;;;;;5004122;28;20029;-65
2020/12/09 09:12:50;;;;;;;19.10;11.27;;;7.60;68.00;;;;;;5018323;28;20026;-64
2020/12/09 09:15:17;;;;;;;27.67;16.17;;;7.50;68.20;;;;;;5026013;28;20461;-66
2020/12/09 09:17:43;;;;;;;45.75;22.65;;;7.50;68.30;;;;;;5031529;28;20116;-65
2020/12/09 09:20:10;;;;;;;46.85;21.90;;;7.50;68.80;;;;;;4989679;28;20125;-62
2020/12/09 09:22:36;;;;;;;17.75;11.13;;;7.50;68.60;;;;;;5012400;28;20026;-63
2020/12/09 09:25:01;;;;;;;17.83;10.52;;;7.60;68.40;;;;;;5011938;28;20037;-62
2020/12/09 09:27:27;;;;;;;12.13;9.52;;;7.60;68.20;;;;;;5017408;28;20022;-65
2020/12/09 09:29:53;;;;;;;14.02;8.77;;;7.60;68.30;;;;;;5000872;28;20127;-65
2020/12/09 09:32:20;;;;;;;12.75;9.32;;;7.60;68.10;;;;;;5001504;28;20040;-61
2020/12/09 09:34:45;;;;;;;11.40;8.40;;;7.40;68.80;;;;;;5007708;28;20087;-68
2020/12/09 09:37:11;;;;;;;13.18;9.15;;;7.40;69.00;;;;;;5027534;28;20132;-67
2020/12/09 09:39:37;;;;;;;14.52;8.63;;;7.40;69.00;;;;;;4995689;28;20042;-67
2020/12/09 09:42:06;;;;;;;13.35;8.40;;;7.40;69.00;;;;;;5031376;28;20171;-67
2020/12/09 09:44:31;;;;;;;13.80;8.52;;;7.50;68.70;;;;;;5014715;28;20116;-66
2020/12/09 09:46:58;;;;;;;12.50;9.20;;;7.60;68.40;;;;;;5031488;28;20120;-69
2020/12/09 09:49:25;;;;;;;25.80;11.00;;;7.70;68.20;;;;;;5031219;28;20057;-68
2020/12/09 09:51:52;;;;;;;16.98;11.20;;;7.80;67.80;;;;;;5014017;28;20121;-66
2020/12/09 09:54:19;;;;;;;21.00;11.48;;;7.90;67.20;;;;;;5031806;28;20036;-67
2020/12/09 09:56:44;;;;;;;22.00;10.40;;;8.00;66.80;;;;;;5013139;28;20049;-67
2020/12/09 09:59:10;;;;;;;21.23;10.80;;;8.00;66.30;;;;;;5030947;28;20511;-69
2020/12/09 10:01:36;;;;;;;19.83;11.45;;;7.90;66.90;;;;;;5031530;28;20021;-67
2020/12/09 10:04:06;;;;;;;16.80;10.23;;;8.00;66.90;;;;;;5030469;28;20069;-67
2020/12/09 10:06:32;;;;;;;17.92;11.15;;;8.00;66.70;;;;;;5032390;28;20083;-69
2020/12/09 10:08:58;;;;;;;13.77;9.05;;;8.00;66.90;;;;;;5022633;28;20506;-66
2020/12/09 10:11:23;;;;;;;14.57;8.23;;;8.00;66.50;;;;;;5006086;28;20026;-66
2020/12/09 10:13:49;;;;;;;13.48;8.75;;;7.90;66.70;;;;;;5020812;28;20132;-67
2020/12/09 10:16:23;;;;;;;13.02;9.20;;;7.70;67.30;;;;;;5013296;28;20025;-68
2020/12/09 10:18:48;;;;;;;;;;;7.60;67.70;;;;;;5014253;28;20426;-68
2020/12/09 10:21:20;;;;;;;12.73;9.02;;;7.70;67.70;;;;;;5029824;28;19913;-69
2020/12/09 10:24:05;;;;;;;10.55;7.68;;;7.70;67.80;;;;;;5032068;28;20026;-67
2020/12/09 10:26:36;;;;;;;13.68;8.68;;;7.60;67.80;;;;;;4996292;28;20444;-66
2020/12/09 10:29:23;;;;;;;12.25;7.57;;;7.60;68.10;;;;;;5012092;28;20038;-65
2020/12/09 10:31:50;;;;;;;13.60;8.50;;;7.70;68.00;;;;;;5027752;28;20029;-67
2020/12/09 10:34:18;;;;;;;15.63;9.40;;;7.70;68.20;;;;;;5011602;28;20030;-68
2020/12/09 10:36:50;;;;;;;13.63;9.32;;;7.70;67.70;;;;;;5011779;28;20018;-69
2020/12/09 10:39:17;;;;;;;12.68;8.48;;;7.70;67.80;;;;;;5010181;28;20033;-66
2020/12/09 10:41:43;;;;;;;19.50;8.38;;;7.80;67.60;;;;;;5010611;28;20022;-64
2020/12/09 10:44:09;;;;;;;11.85;8.75;;;7.90;67.10;;;;;;5010766;28;20037;-64
2020/12/09 10:46:37;;;;;;;18.20;8.98;;;7.80;66.90;;;;;;5011352;28;20029;-68
2020/12/09 10:49:08;;;;;;;10.15;7.55;;;7.80;67.60;;;;;;5010931;28;20026;-66
2020/12/09 10:51:34;;;;;;;11.27;8.05;;;7.70;67.40;;;;;;5011049;28;20033;-67
2020/12/09 10:54:00;;;;;;;13.07;9.18;;;7.70;67.80;;;;;;5010723;28;20038;-63
2020/12/09 10:56:30;;;;;;;14.20;9.60;;;7.80;67.60;;;;;;5004831;28;20049;-66
2020/12/09 10:58:58;;;;;;;14.55;9.32;;;7.80;67.70;;;;;;5007144;28;20542;-67
2020/12/09 11:01:27;;;;;;;11.60;7.97;;;7.90;67.70;;;;;;5012211;28;20030;-66
2020/12/09 11:03:56;;;;;;;14.18;8.98;;;8.10;66.70;;;;;;5016310;28;20025;-64
2020/12/09 11:06:28;;;;;;;15.80;8.40;;;8.10;66.70;;;;;;4994714;28;20124;-66
2020/12/09 11:08:55;;;;;;;14.20;8.50;;;8.10;66.70;;;;;;5031064;28;20022;-62
2020/12/09 11:11:22;;;;;;;16.27;9.00;;;8.20;66.70;;;;;;4998283;28;20029;-66
2020/12/09 11:13:48;;;;;;;13.95;8.52;;;8.20;66.50;;;;;;5025823;28;20067;-66
2020/12/09 11:16:14;;;;;;;13.38;9.05;;;8.10;66.20;;;;;;5016963;28;20053;-66
2020/12/09 11:18:40;;;;;;;14.77;9.90;;;8.00;66.80;;;;;;5027935;28;20033;-65
2020/12/09 11:21:06;;;;;;;12.88;9.00;;;8.00;67.10;;;;;;4995198;28;20029;-66
2020/12/09 11:23:32;;;;;;;18.67;8.40;;;8.10;66.50;;;;;;5018635;28;20037;-65
2020/12/09 11:25:57;;;;;;;11.40;8.52;;;8.10;66.40;;;;;;5026158;28;20032;-66
2020/12/09 11:28:23;;;;;;;11.10;7.90;;;8.00;66.80;;;;;;5023089;28;20038;-69
2020/12/09 11:30:49;;;;;;;18.60;8.68;;;8.10;66.70;;;;;;5014883;28;20455;-66
2020/12/09 11:33:14;;;;;;;13.57;8.77;;;8.10;66.70;;;;;;5015881;28;20034;-66
2020/12/09 11:35:40;;;;;;;14.50;8.43;;;8.20;66.60;;;;;;5016238;28;20323;-67
2020/12/09 11:38:06;;;;;;;13.18;8.48;;;8.30;66.40;;;;;;5027876;28;20576;-67
2020/12/09 11:40:32;;;;;;;13.20;8.43;;;8.20;66.00;;;;;;5031442;28;20540;-69
2020/12/09 11:42:57;;;;;;;11.98;8.90;;;8.10;66.40;;;;;;5032023;28;20029;-68
2020/12/09 11:45:23;;;;;;;13.98;8.20;;;8.20;66.40;;;;;;5017251;28;20022;-68
2020/12/09 11:47:49;;;;;;;11.50;8.45;;;8.30;66.20;;;;;;5017544;28;20069;-66
2020/12/09 11:50:14;;;;;;;15.35;8.57;;;8.40;66.00;;;;;;5027260;28;20041;-67
2020/12/09 11:52:40;;;;;;;12.88;8.52;;;8.40;65.60;;;;;;5020070;28;20083;-67
2020/12/09 11:55:06;;;;;;;15.00;8.80;;;8.20;65.80;;;;;;5001227;28;20026;-66
2020/12/09 11:57:31;;;;;;;12.00;8.35;;;8.10;66.40;;;;;;5015456;28;20433;-66
2020/12/09 11:59:57;;;;;;;13.55;9.05;;;8.00;66.50;;;;;;5022699;28;20053;-62
2020/12/09 12:02:23;;;;;;;14.80;9.20;;;8.10;66.70;;;;;;5030008;28;20026;-61
2020/12/09 12:04:51;;;;;;;15.85;8.25;;;8.20;66.40;;;;;;5013470;28;20044;-60
2020/12/09 12:07:16;;;;;;;12.32;8.80;;;8.40;65.90;;;;;;5023695;28;20087;-72
2020/12/09 12:09:43;;;;;;;16.40;10.10;;;8.40;65.30;;;;;;5015569;28;20037;-70
2020/12/09 12:12:09;;;;;;;12.90;8.93;;;8.40;65.10;;;;;;5021099;28;20174;-64
2020/12/09 12:14:35;;;;;;;14.80;9.60;;;8.40;64.90;;;;;;5004177;28;20041;-78
2020/12/09 12:17:01;;;;;;;14.05;8.88;;;8.30;65.30;;;;;;4998015;28;20018;-66
2020/12/09 12:19:27;;;;;;;16.95;8.65;;;8.30;65.70;;;;;;5019098;28;20599;-65
2020/12/09 12:21:52;;;;;;;11.48;8.90;;;8.30;65.70;;;;;;5024221;28;20038;-65
2020/12/09 12:24:18;;;;;;;15.07;10.10;;;8.30;65.70;;;;;;5028573;28;20033;-62
2020/12/09 12:26:43;;;;;;;12.20;9.02;;;8.20;66.40;;;;;;5022083;28;20049;-65
2020/12/09 12:29:09;;;;;;;13.48;9.00;;;8.10;66.70;;;;;;5030848;28;20457;-64
2020/12/09 12:31:35;;;;;;;12.85;9.68;;;8.10;67.10;;;;;;5014666;28;20029;-65
2020/12/09 12:34:01;;;;;;;13.68;8.40;;;8.10;67.20;;;;;;5023733;28;20021;-63
2020/12/09 12:36:27;;;;;;;16.42;8.93;;;8.10;67.10;;;;;;5016516;28;20041;-64
2020/12/09 12:38:52;;;;;;;12.25;8.82;;;8.10;67.40;;;;;;5031765;28;20036;-64
2020/12/09 12:41:18;;;;;;;15.10;9.07;;;8.10;67.40;;;;;;5020006;28;20123;-63
2020/12/09 12:43:44;;;;;;;14.13;8.90;;;8.20;67.30;;;;;;5021106;28;20060;-68
2020/12/09 12:46:11;;;;;;;17.88;9.70;;;8.30;67.00;;;;;;5005864;28;20057;-65
2020/12/09 12:48:36;;;;;;;11.07;8.75;;;8.30;67.10;;;;;;4993429;28;20052;-68